首页
METAR-TAF:

METAR-TAF

机场 :

布爾諾, 捷克共和国

纬度: 49-09N, 经度: 016-42E, 海拔: 241米

当前天气观测

该预报发布于29分钟前的19:30 UTC
风速8节,风向西
温度 3°C
湿度 81%
气压 1019 hPa
能见度10公里或以上
1500米以下无云,无积雨云

METAR: LKTB 191930Z 28008KT CAVOK 03/00 Q1019 NOSIG

时间: 20:59 (19:59 UTC)

预报

该预报发布于2小时和59分钟前的17:00 UTC
预报有效从19日的 18点(UTC)到 21日的 00点(UTC)
风速10节,风向西南
能见度10公里或以上
散云层高于2000英尺
多云层高于4000英尺
短暂存在
从 19日的 18点(UTC)到 19日的 20点(UTC)
能見度: 7000
散云层高于1500英尺
多云层高于2000英尺
成为
从 19日的 18点(UTC)到 19日的 21点(UTC)
风速10节,风向西转西北
成为
从 20日的 12点(UTC)到 20日的 15点(UTC)
风速6节,风向

TAF: LKTB 191700Z 1918/2100 22010KT 9999 SCT020 BKN040 TEMPO 1918/1920 7000 RA SCT015 BKN020 BECMG 1918/1921 30010KT BECMG 2012/2015 18006KT

超过4000个机场的气象观测和天气预报(METAR&TAF报告)。

可查询的气象台以黄色和红色小点在地图上表示。

将鼠标移到小点上方,可查看气象台名称。

然后点击查看天气观测和预报。

如需切换地图:点击带黑十字的绿色按钮放大地图;点击带横线的绿色按钮缩小地图;或者点击绿色箭头查看邻近地区的地图。


METAR-TAF: